createdAt,value
2018-08-10T00:01:49.185Z,95871.30
2018-08-10T00:04:18.234Z,95872.39
2018-08-10T00:06:47.349Z,95859.69
2018-08-10T00:09:16.412Z,95861.19
2018-08-10T00:11:45.457Z,95859.05
2018-08-10T00:14:14.538Z,95860.71
2018-08-10T00:16:43.597Z,95860.53
2018-08-10T00:19:12.654Z,95864.67
2018-08-10T00:21:41.726Z,95865.39
2018-08-10T00:26:46.505Z,95865.20
2018-08-10T00:29:15.596Z,95857.56
2018-08-10T00:34:20.360Z,95872.86
2018-08-10T00:36:50.374Z,95879.05
2018-08-10T00:39:20.376Z,95878.19
2018-08-10T00:41:53.351Z,95884.73
2018-08-10T00:44:23.424Z,95889.58
2018-08-10T00:49:28.248Z,95887.38
2018-08-10T00:54:34.542Z,95893.43
2018-08-10T00:57:03.634Z,95894.05
2018-08-10T00:59:34.846Z,95888.08
2018-08-10T01:02:03.882Z,95885.30
2018-08-10T01:09:42.851Z,95886.00
2018-08-10T01:12:11.945Z,95883.68
2018-08-10T01:14:41.005Z,95888.16
2018-08-10T01:17:10.070Z,95890.59
2018-08-10T01:19:39.132Z,95889.67
2018-08-10T01:22:08.189Z,95893.22
2018-08-10T01:24:37.243Z,95892.10
2018-08-10T01:27:06.313Z,95889.97
2018-08-10T01:32:11.259Z,95900.14
2018-08-10T01:34:40.317Z,95902.50
2018-08-10T01:39:46.082Z,95906.06
2018-08-10T01:42:15.140Z,95907.87
2018-08-10T01:49:55.810Z,95910.51
2018-08-10T01:52:24.855Z,95908.41
2018-08-10T01:54:53.907Z,95909.97
2018-08-10T01:57:23.966Z,95911.16
2018-08-10T01:59:53.021Z,95916.33
2018-08-10T02:02:22.104Z,95917.58
2018-08-10T02:04:51.192Z,95916.66
2018-08-10T02:09:57.041Z,95922.10
2018-08-10T02:14:08.783Z,95918.78
2018-08-10T02:16:38.794Z,95925.37
2018-08-10T02:19:11.266Z,95922.05
2018-08-10T02:21:40.312Z,95922.44
2018-08-10T02:24:09.383Z,95924.78
2018-08-10T02:26:38.441Z,95916.38
2018-08-10T02:29:07.507Z,95916.94
2018-08-10T02:36:47.685Z,95915.91
2018-08-10T02:39:16.736Z,95915.65
2018-08-10T02:41:45.799Z,95917.77
2018-08-10T02:44:14.853Z,95914.35
2018-08-10T02:46:43.934Z,95916.13
2018-08-10T02:49:12.999Z,95918.43
2018-08-10T02:54:17.834Z,95923.98
2018-08-10T02:59:22.582Z,95921.75
2018-08-10T03:01:51.633Z,95921.27
2018-08-10T03:04:20.693Z,95923.39
2018-08-10T03:06:49.783Z,95927.03
2018-08-10T03:09:19.771Z,95924.25
2018-08-10T03:11:52.149Z,95921.48
2018-08-10T03:14:21.207Z,95928.22
2018-08-10T03:16:50.253Z,95928.20
2018-08-10T03:19:20.272Z,95930.63
2018-08-10T03:21:49.326Z,95931.20
2018-08-10T03:24:18.414Z,95929.23
2018-08-10T03:26:47.493Z,95923.86
2018-08-10T03:31:52.338Z,95928.58
2018-08-10T03:34:21.416Z,95932.22
2018-08-10T03:36:50.482Z,95934.40
2018-08-10T03:39:19.531Z,95935.95
2018-08-10T03:41:48.591Z,95936.20
2018-08-10T03:44:17.629Z,95942.45
2018-08-10T03:46:47.632Z,95946.57
2018-08-10T03:49:17.705Z,95948.84
2018-08-10T03:51:47.779Z,95951.47
2018-08-10T03:54:16.834Z,95955.48
2018-08-10T03:56:46.899Z,95955.05
2018-08-10T03:59:15.966Z,95959.89
2018-08-10T04:01:46.036Z,95967.59
2018-08-10T04:04:15.073Z,95967.93
2018-08-10T04:06:44.131Z,95964.89
2018-08-10T04:09:13.209Z,95963.55
2018-08-10T04:14:17.997Z,95969.45
2018-08-10T04:16:47.124Z,95968.80
2018-08-10T04:19:19.233Z,95973.80
2018-08-10T04:21:48.289Z,95980.02
2018-08-10T04:24:17.385Z,95985.44
2018-08-10T04:26:46.446Z,95989.00
2018-08-10T04:29:17.473Z,95993.70
2018-08-10T04:31:46.553Z,96000.84
2018-08-10T04:34:15.616Z,96002.09
2018-08-10T04:36:44.681Z,96001.82
2018-08-10T04:39:14.690Z,96004.49
2018-08-10T04:41:43.737Z,96015.09
2018-08-10T04:44:12.806Z,96011.73
2018-08-10T04:46:41.898Z,96010.47
2018-08-10T04:49:14.698Z,96014.51
2018-08-10T04:54:19.548Z,96019.34
2018-08-10T04:56:48.633Z,96021.41
2018-08-10T04:59:17.783Z,96020.44
2018-08-10T05:01:46.843Z,96027.03
2018-08-10T05:04:15.903Z,96032.85
2018-08-10T05:06:44.965Z,96037.25
2018-08-10T05:09:15.039Z,96056.22
2018-08-10T05:11:44.437Z,96061.33
2018-08-10T05:14:13.520Z,96063.73
2018-08-10T05:16:42.589Z,96071.88
2018-08-10T05:21:48.428Z,96089.95
2018-08-10T05:26:53.190Z,96101.42
2018-08-10T05:29:22.257Z,96108.19
2018-08-10T05:31:51.314Z,96113.28
2018-08-10T05:34:24.086Z,96117.31
2018-08-10T05:36:53.168Z,96122.06
2018-08-10T05:39:22.227Z,96127.31
2018-08-10T05:41:51.289Z,96134.01
2018-08-10T05:44:20.362Z,96137.85
2018-08-10T05:46:50.397Z,96139.83
2018-08-10T05:51:55.492Z,96145.66
2018-08-10T05:54:24.552Z,96148.56
2018-08-10T05:56:53.624Z,96147.19
2018-08-10T06:01:58.396Z,96154.03
2018-08-10T06:12:16.227Z,96162.20
2018-08-10T06:14:45.286Z,96163.27
2018-08-10T06:17:17.845Z,96169.00
2018-08-10T06:19:46.954Z,96170.22
2018-08-10T06:22:15.965Z,96170.16
2018-08-10T06:24:46.570Z,96176.51
2018-08-10T06:29:51.417Z,96187.56
2018-08-10T06:37:32.453Z,96193.55
2018-08-10T06:45:13.317Z,96199.64
2018-08-10T06:47:43.454Z,96207.47
2018-08-10T06:50:12.486Z,96212.61
2018-08-10T06:52:41.541Z,96222.08
2018-08-10T06:55:11.802Z,96229.93
2018-08-10T06:57:41.809Z,96233.15
2018-08-10T07:05:22.337Z,96242.65
2018-08-10T07:07:51.470Z,96241.88
2018-08-10T07:12:56.699Z,96249.89
2018-08-10T07:15:25.769Z,96257.47
2018-08-10T07:18:00.393Z,96262.49
2018-08-10T07:25:41.018Z,96273.67
2018-08-10T07:28:11.033Z,96275.36
2018-08-10T07:30:42.577Z,96282.84
2018-08-10T07:33:12.597Z,96284.34
2018-08-10T07:35:42.613Z,96288.60
2018-08-10T07:43:23.153Z,96288.67
2018-08-10T07:48:28.809Z,96290.90
2018-08-10T07:50:57.849Z,96292.00
2018-08-10T07:53:26.918Z,96295.84
2018-08-10T08:01:07.509Z,96300.46
2018-08-10T08:03:37.513Z,96309.69
2018-08-10T08:06:09.583Z,96310.02
2018-08-10T08:08:39.602Z,96308.54
2018-08-10T08:13:45.447Z,96319.41
2018-08-10T08:16:14.472Z,96318.27
2018-08-10T08:21:19.357Z,96316.41
2018-08-10T08:23:50.381Z,96315.64
2018-08-10T08:26:19.468Z,96318.70
2018-08-10T08:31:24.605Z,96330.09
2018-08-10T08:33:53.653Z,96333.51
2018-08-10T08:46:45.751Z,96353.38
2018-08-10T08:49:14.843Z,96353.16
2018-08-10T08:51:44.028Z,96347.50
2018-08-10T08:56:48.827Z,96353.66
2018-08-10T09:04:29.423Z,96360.46
2018-08-10T09:09:34.348Z,96352.64
2018-08-10T09:12:04.305Z,96354.09
2018-08-10T09:14:37.042Z,96351.03
2018-08-10T09:17:06.190Z,96348.42
2018-08-10T09:19:35.172Z,96353.44
2018-08-10T09:24:40.084Z,96354.94
2018-08-10T09:27:09.218Z,96363.92
2018-08-10T09:32:14.062Z,96361.77
2018-08-10T09:34:43.118Z,96364.80
2018-08-10T09:37:12.436Z,96361.34
2018-08-10T09:39:41.476Z,96361.11
2018-08-10T09:44:48.257Z,96366.31
2018-08-10T09:47:17.342Z,96361.75
2018-08-10T09:49:46.397Z,96364.67
2018-08-10T09:52:15.448Z,96367.52
2018-08-10T09:54:47.016Z,96366.66
2018-08-10T09:57:16.085Z,96369.56
2018-08-10T10:04:58.667Z,96364.77
2018-08-10T10:07:27.736Z,96376.80
2018-08-10T10:17:44.021Z,96376.39
2018-08-10T10:20:13.084Z,96372.92
2018-08-10T10:25:17.862Z,96366.14
2018-08-10T10:27:47.025Z,96366.66
2018-08-10T10:30:16.134Z,96363.31
2018-08-10T10:32:45.286Z,96364.92
2018-08-10T10:35:14.325Z,96360.76
2018-08-10T10:37:43.386Z,96360.61
2018-08-10T10:40:12.449Z,96355.31
2018-08-10T10:42:42.518Z,96354.11
2018-08-10T10:45:11.611Z,96354.91
2018-08-10T10:47:40.663Z,96354.70
2018-08-10T10:50:09.733Z,96348.67
2018-08-10T10:52:38.795Z,96352.63
2018-08-10T10:55:09.785Z,96352.17
2018-08-10T10:57:40.850Z,96349.57
2018-08-10T11:02:45.616Z,96352.94
2018-08-10T11:05:16.629Z,96346.72
2018-08-10T11:10:21.408Z,96356.53
2018-08-10T11:12:52.415Z,96354.12
2018-08-10T11:15:21.466Z,96357.10
2018-08-10T11:17:50.530Z,96351.39
2018-08-10T11:20:20.541Z,96349.64
2018-08-10T11:22:49.602Z,96350.84
2018-08-10T11:25:18.735Z,96349.86
2018-08-10T11:30:23.816Z,96354.25
2018-08-10T11:32:52.741Z,96351.76
2018-08-10T11:35:21.847Z,96347.23
2018-08-10T11:37:51.924Z,96344.93
2018-08-10T11:40:20.985Z,96355.60
2018-08-10T11:42:50.054Z,96350.77
2018-08-10T11:47:54.909Z,96344.89
2018-08-10T11:50:24.007Z,96345.70
2018-08-10T11:52:53.045Z,96347.50
2018-08-10T11:55:22.351Z,96354.77
2018-08-10T11:57:51.485Z,96346.83
2018-08-10T12:00:20.553Z,96342.20
2018-08-10T12:02:49.699Z,96340.16
2018-08-10T12:05:18.741Z,96337.97
2018-08-10T12:07:47.798Z,96341.13
2018-08-10T12:12:52.661Z,96345.38
2018-08-10T12:15:21.729Z,96339.73
2018-08-10T12:17:54.617Z,96339.67
2018-08-10T12:20:23.761Z,96338.66
2018-08-10T12:22:53.716Z,96335.52
2018-08-10T12:27:58.500Z,96334.25
2018-08-10T12:33:03.238Z,96330.27
2018-08-10T12:35:32.298Z,96333.16
2018-08-10T12:38:01.360Z,96334.09
2018-08-10T12:40:31.394Z,96338.94
2018-08-10T12:43:00.438Z,96342.58
2018-08-10T12:45:29.515Z,96344.88
2018-08-10T12:47:58.570Z,96340.38
2018-08-10T12:50:27.678Z,96342.31
2018-08-10T12:52:56.693Z,96343.43
2018-08-10T12:55:26.802Z,96340.78
2018-08-10T12:57:56.994Z,96345.75
2018-08-10T13:00:28.114Z,96341.58
2018-08-10T13:02:57.251Z,96340.99
2018-08-10T13:05:26.261Z,96348.08
2018-08-10T13:07:55.320Z,96340.82
2018-08-10T13:10:24.471Z,96339.27
2018-08-10T13:15:30.368Z,96334.61
2018-08-10T13:17:59.444Z,96335.22
2018-08-10T13:20:28.501Z,96332.10
2018-08-10T13:22:57.599Z,96331.41
2018-08-10T13:25:27.629Z,96333.63
2018-08-10T13:27:56.684Z,96322.61
2018-08-10T13:30:25.736Z,96322.45
2018-08-10T13:35:30.533Z,96318.17
2018-08-10T13:37:59.536Z,96307.09
2018-08-10T13:40:28.581Z,96309.95
2018-08-10T13:42:57.640Z,96312.31
2018-08-10T13:45:28.599Z,96316.21
2018-08-10T13:47:59.090Z,96316.30
2018-08-10T13:50:28.132Z,96316.11
2018-08-10T13:52:57.182Z,96312.46
2018-08-10T13:55:31.203Z,96312.94
2018-08-10T13:58:06.303Z,96309.98
2018-08-10T14:00:39.816Z,96303.73
2018-08-10T14:03:12.617Z,96304.47
2018-08-10T14:08:17.434Z,96301.15
2018-08-10T14:10:47.441Z,96299.75
2018-08-10T14:13:16.695Z,96306.27
2018-08-10T14:15:45.762Z,96309.31
2018-08-10T14:18:14.800Z,96306.52
2018-08-10T14:20:43.848Z,96301.95
2018-08-10T14:23:12.901Z,96297.80
2018-08-10T14:25:41.950Z,96298.81
2018-08-10T14:28:11.017Z,96291.98
2018-08-10T14:35:52.067Z,96295.20
2018-08-10T14:38:21.142Z,96295.19
2018-08-10T14:40:50.193Z,96294.05
2018-08-10T14:43:19.354Z,96291.80
2018-08-10T14:45:48.369Z,96285.59
2018-08-10T14:48:17.617Z,96282.78
2018-08-10T14:50:46.665Z,96275.80
2018-08-10T14:53:15.712Z,96271.37
2018-08-10T14:55:44.773Z,96265.63
2018-08-10T14:58:14.866Z,96271.50
2018-08-10T15:00:43.954Z,96272.08
2018-08-10T15:03:13.872Z,96267.01
2018-08-10T15:05:42.954Z,96264.95
2018-08-10T15:10:47.753Z,96266.37
2018-08-10T15:13:16.809Z,96267.59
2018-08-10T15:18:23.541Z,96264.66
2018-08-10T15:20:52.625Z,96268.25
2018-08-10T15:23:21.684Z,96268.91
2018-08-10T15:25:50.729Z,96266.93
2018-08-10T15:30:56.492Z,96264.84
2018-08-10T15:33:25.541Z,96255.81
2018-08-10T15:35:55.506Z,96259.45
2018-08-10T15:38:24.715Z,96263.78
2018-08-10T15:40:54.071Z,96260.45
2018-08-10T15:43:23.153Z,96252.41
2018-08-10T15:45:52.379Z,96251.27
2018-08-10T15:48:27.364Z,96253.33
2018-08-10T15:50:56.483Z,96250.61
2018-08-10T15:53:25.549Z,96252.90
2018-08-10T15:55:54.604Z,96255.73
2018-08-10T15:58:23.700Z,96252.66
2018-08-10T16:00:52.748Z,96254.46
2018-08-10T16:03:21.792Z,96255.91
2018-08-10T16:05:55.249Z,96247.23
2018-08-10T16:08:28.085Z,96249.13
2018-08-10T16:10:57.095Z,96251.55
2018-08-10T16:13:26.141Z,96255.47
2018-08-10T16:15:55.214Z,96254.35
2018-08-10T16:18:24.257Z,96256.44
2018-08-10T16:23:32.681Z,96254.09
2018-08-10T16:28:37.535Z,96253.43
2018-08-10T16:33:42.377Z,96254.22
2018-08-10T16:36:11.482Z,96249.77
2018-08-10T16:38:40.486Z,96251.50
2018-08-10T16:43:45.328Z,96248.93
2018-08-10T16:46:15.369Z,96246.04
2018-08-10T16:51:23.193Z,96248.72
2018-08-10T16:53:52.272Z,96247.56
2018-08-10T16:58:57.121Z,96251.13
2018-08-10T17:01:26.326Z,96254.23
2018-08-10T17:03:56.343Z,96256.98
2018-08-10T17:06:25.372Z,96254.89
2018-08-10T17:08:54.433Z,96252.34
2018-08-10T17:11:23.487Z,96251.34
2018-08-10T17:13:52.529Z,96254.08
2018-08-10T17:16:21.575Z,96255.19
2018-08-10T17:18:50.626Z,96257.97
2018-08-10T17:21:19.675Z,96259.47
2018-08-10T17:23:48.739Z,96251.92
2018-08-10T17:26:17.819Z,96249.84
2018-08-10T17:28:46.901Z,96248.84
2018-08-10T17:31:15.946Z,96249.66
2018-08-10T17:36:20.794Z,96250.16
2018-08-10T17:41:25.636Z,96251.53
2018-08-10T17:43:54.690Z,96250.91
2018-08-10T17:46:23.738Z,96252.53
2018-08-10T17:51:29.086Z,96259.41
2018-08-10T17:53:58.128Z,96262.13
2018-08-10T17:56:27.184Z,96259.07
2018-08-10T18:01:32.042Z,96254.52
2018-08-10T18:04:01.096Z,96247.36
2018-08-10T18:06:31.171Z,96249.43
2018-08-10T18:09:00.230Z,96247.95
2018-08-10T18:11:30.253Z,96249.52
2018-08-10T18:16:35.052Z,96242.87
2018-08-10T18:19:04.175Z,96247.41
2018-08-10T18:21:34.128Z,96248.94
2018-08-10T18:24:03.181Z,96250.37
2018-08-10T18:26:32.229Z,96255.84
2018-08-10T18:29:01.285Z,96254.55
2018-08-10T18:31:30.349Z,96254.11
2018-08-10T18:33:59.442Z,96251.93
2018-08-10T18:36:28.492Z,96254.69
2018-08-10T18:38:57.550Z,96247.71
2018-08-10T18:41:26.622Z,96250.70
2018-08-10T18:46:31.426Z,96244.98
2018-08-10T18:49:00.486Z,96248.96
2018-08-10T18:51:29.547Z,96254.30
2018-08-10T18:53:58.615Z,96252.03
2018-08-10T18:56:27.682Z,96257.12
2018-08-10T18:58:56.874Z,96255.97
2018-08-10T19:01:25.938Z,96257.55
2018-08-10T19:03:56.046Z,96253.77
2018-08-10T19:09:00.989Z,96255.27
2018-08-10T19:16:41.690Z,96256.31
2018-08-10T19:19:12.694Z,96257.88
2018-08-10T19:21:42.796Z,96264.13
2018-08-10T19:24:11.864Z,96264.88
2018-08-10T19:26:40.942Z,96263.16
2018-08-10T19:29:10.034Z,96265.63
2018-08-10T19:31:39.098Z,96266.23
2018-08-10T19:34:08.306Z,96259.39
2018-08-10T19:36:37.372Z,96258.05
2018-08-10T19:39:06.439Z,96257.61
2018-08-10T19:41:44.281Z,96255.94
2018-08-10T19:46:51.905Z,96256.78
2018-08-10T19:49:20.966Z,96255.19
2018-08-10T19:51:50.023Z,96255.77
2018-08-10T19:59:31.597Z,96242.87
2018-08-10T20:02:00.763Z,96241.85
2018-08-10T20:07:05.639Z,96246.75
2018-08-10T20:14:46.254Z,96260.35
2018-08-10T20:17:16.405Z,96256.75
2018-08-10T20:19:45.560Z,96250.73
2018-08-10T20:22:14.645Z,96246.94
2018-08-10T20:24:43.709Z,96248.50
2018-08-10T20:27:12.774Z,96250.31
2018-08-10T20:29:41.881Z,96243.55
2018-08-10T20:32:11.032Z,96243.97
2018-08-10T20:37:15.805Z,96244.56
2018-08-10T20:39:44.889Z,96244.00
2018-08-10T20:42:13.964Z,96243.74
2018-08-10T20:44:43.011Z,96239.62
2018-08-10T20:49:47.766Z,96239.03
2018-08-10T20:52:16.858Z,96237.45
2018-08-10T20:54:45.907Z,96230.71
2018-08-10T20:57:14.979Z,96230.98
2018-08-10T20:59:44.098Z,96233.97
2018-08-10T21:02:14.189Z,96228.05
2018-08-10T21:07:19.026Z,96221.67
2018-08-10T21:12:28.488Z,96221.28
2018-08-10T21:14:57.607Z,96225.11
2018-08-10T21:20:04.678Z,96225.98
2018-08-10T21:22:33.745Z,96220.23
2018-08-10T21:25:02.965Z,96218.65
2018-08-10T21:27:32.029Z,96219.19
2018-08-10T21:30:01.098Z,96216.49
2018-08-10T21:35:05.933Z,96216.02
2018-08-10T21:37:35.061Z,96218.77
2018-08-10T21:40:04.101Z,96220.47
2018-08-10T21:42:34.195Z,96221.01
2018-08-10T21:45:04.282Z,96221.45
2018-08-10T21:47:33.493Z,96224.77
2018-08-10T21:50:02.587Z,96227.05
2018-08-10T21:52:31.658Z,96221.89
2018-08-10T21:57:36.435Z,96217.88
2018-08-10T22:00:05.514Z,96217.97
2018-08-10T22:02:35.532Z,96213.63
2018-08-10T22:07:40.308Z,96212.68
2018-08-10T22:10:09.379Z,96215.09
2018-08-10T22:12:38.442Z,96216.12
2018-08-10T22:20:58.168Z,96219.09
2018-08-10T22:26:03.003Z,96221.83
2018-08-10T22:28:32.041Z,96216.62
2018-08-10T22:31:01.114Z,96212.55
2018-08-10T22:36:05.912Z,96216.59
2018-08-10T22:38:34.981Z,96220.82
2018-08-10T22:41:06.053Z,96211.50
2018-08-10T22:43:36.135Z,96208.43
2018-08-10T22:46:05.214Z,96198.14
2018-08-10T22:48:36.286Z,96206.16
2018-08-10T22:51:05.460Z,96203.77
2018-08-10T22:53:34.524Z,96202.33
2018-08-10T22:56:03.600Z,96198.61
2018-08-10T22:58:32.688Z,96198.70
2018-08-10T23:01:01.760Z,96194.64
2018-08-10T23:03:30.818Z,96194.16
2018-08-10T23:05:59.881Z,96195.44
2018-08-10T23:13:40.402Z,96200.84
2018-08-10T23:16:09.461Z,96200.80
2018-08-10T23:18:38.532Z,96199.19
2018-08-10T23:21:07.589Z,96199.77
2018-08-10T23:23:36.660Z,96197.58
2018-08-10T23:26:06.745Z,96193.96
2018-08-10T23:28:36.996Z,96196.15
2018-08-10T23:33:41.793Z,96188.84
2018-08-10T23:36:10.946Z,96188.98
2018-08-10T23:38:40.009Z,96182.06
2018-08-10T23:43:44.837Z,96183.63
2018-08-10T23:46:13.925Z,96179.09
2018-08-10T23:48:43.029Z,96172.41
2018-08-10T23:51:12.089Z,96171.75
2018-08-10T23:53:41.151Z,96172.48
2018-08-10T23:56:10.218Z,96172.39
2018-08-10T23:58:39.436Z,96167.00
